Newfoundland, Pennsylvania
Current Conditions -  °F | °C
As of 9:53 PM on Friday 19 Dec 2014 (Local Time) from KMPO Reporting Station
Overcast Overcast  
Wind Chill: -12°   Ceiling: 900
Heat Index: -4°   Visibility: 10mi
Dew Point: -7°   Wind: 16mph
Humidity: 81%   Direction: 310°NW
Pressure: 30.08"   Gusts: 23mph
Location:  41.31°N, 75.32°W
Report Text: KMPO 200253Z AUTO 31014G20KT 10SM OVC009 M04/M07 A3008 RMK AO2 SLP212 T10441072 55001
Loading
Personal Weather Stations






























Interactive Weather Map New forecast layout! Learn more

10-Day Weather Forecast

Advertisements
Track Severe Weather on mobile